sensor_id;sensor_type;location;lat;lon;timestamp;noise_LAeq;noise_LA_min;noise_LA_max;noise_LA01;noise_LA95
76261;Laerm;65076;52.362;6.588;2023-01-15T00:01:48;45.90;34.89;57.31;;
76261;Laerm;65076;52.362;6.588;2023-01-15T00:04:15;47.99;34.38;64.26;;
76261;Laerm;65076;52.362;6.588;2023-01-15T00:06:45;53.13;34.94;69.86;;
76261;Laerm;65076;52.362;6.588;2023-01-15T00:09:15;45.63;33.96;58.43;;
76261;Laerm;65076;52.362;6.588;2023-01-15T00:11:43;38.21;34.00;56.22;;
76261;Laerm;65076;52.362;6.588;2023-01-15T00:14:11;39.11;33.51;52.11;;
76261;Laerm;65076;52.362;6.588;2023-01-15T00:16:39;46.16;33.78;61.21;;
76261;Laerm;65076;52.362;6.588;2023-01-15T00:19:09;51.61;33.41;69.08;;
76261;Laerm;65076;52.362;6.588;2023-01-15T00:21:37;45.13;33.79;60.07;;
76261;Laerm;65076;52.362;6.588;2023-01-15T00:24:08;41.82;33.90;57.09;;
76261;Laerm;65076;52.362;6.588;2023-01-15T00:26:53;36.42;33.36;42.62;;
76261;Laerm;65076;52.362;6.588;2023-01-15T00:29:39;44.15;32.27;60.28;;
76261;Laerm;65076;52.362;6.588;2023-01-15T00:32:08;52.67;33.75;67.10;;
76261;Laerm;65076;52.362;6.588;2023-01-15T00:34:36;51.02;34.11;66.76;;
76261;Laerm;65076;52.362;6.588;2023-01-15T00:37:04;40.94;33.54;58.21;;
76261;Laerm;65076;52.362;6.588;2023-01-15T00:39:33;36.55;33.16;43.80;;
76261;Laerm;65076;52.362;6.588;2023-01-15T00:42:01;52.42;35.24;68.63;;
76261;Laerm;65076;52.362;6.588;2023-01-15T00:44:29;46.45;34.17;62.76;;
76261;Laerm;65076;52.362;6.588;2023-01-15T00:46:59;46.35;33.53;63.54;;
76261;Laerm;65076;52.362;6.588;2023-01-15T00:49:27;42.14;33.91;58.21;;
76261;Laerm;65076;52.362;6.588;2023-01-15T00:51:55;36.70;33.15;44.75;;
76261;Laerm;65076;52.362;6.588;2023-01-15T00:54:23;44.95;33.33;64.28;;
76261;Laerm;65076;52.362;6.588;2023-01-15T00:56:52;43.66;33.10;62.26;;
76261;Laerm;65076;52.362;6.588;2023-01-15T00:59:21;37.51;33.31;47.71;;
76261;Laerm;65076;52.362;6.588;2023-01-15T01:01:49;35.81;32.66;42.92;;
76261;Laerm;65076;52.362;6.588;2023-01-15T01:04:17;35.54;32.35;43.68;;
76261;Laerm;65076;52.362;6.588;2023-01-15T01:06:45;36.30;31.25;52.10;;
76261;Laerm;65076;52.362;6.588;2023-01-15T01:09:14;35.34;31.80;47.61;;
76261;Laerm;65076;52.362;6.588;2023-01-15T01:11:42;52.47;32.60;70.01;;
76261;Laerm;65076;52.362;6.588;2023-01-15T01:14:12;37.94;32.33;49.50;;
76261;Laerm;65076;52.362;6.588;2023-01-15T01:16:40;36.31;32.33;51.30;;
76261;Laerm;65076;52.362;6.588;2023-01-15T01:19:12;46.49;33.22;62.35;;
76261;Laerm;65076;52.362;6.588;2023-01-15T01:21:42;49.87;32.88;73.85;;
76261;Laerm;65076;52.362;6.588;2023-01-15T01:24:13;38.28;33.54;47.76;;
76261;Laerm;65076;52.362;6.588;2023-01-15T01:26:43;52.93;33.27;68.54;;
76261;Laerm;65076;52.362;6.588;2023-01-15T01:29:14;49.36;33.82;65.79;;
76261;Laerm;65076;52.362;6.588;2023-01-15T01:31:42;35.75;31.88;46.05;;
76261;Laerm;65076;52.362;6.588;2023-01-15T01:34:12;52.13;32.63;68.99;;
76261;Laerm;65076;52.362;6.588;2023-01-15T01:36:43;38.34;32.31;54.83;;
76261;Laerm;65076;52.362;6.588;2023-01-15T01:39:13;36.97;32.42;53.56;;
76261;Laerm;65076;52.362;6.588;2023-01-15T01:41:41;45.91;33.61;59.99;;
76261;Laerm;65076;52.362;6.588;2023-01-15T01:47:39;53.55;32.91;69.74;;
76261;Laerm;65076;52.362;6.588;2023-01-15T01:50:11;46.62;33.84;63.03;;
76261;Laerm;65076;52.362;6.588;2023-01-15T01:52:47;40.14;33.12;50.65;;
76261;Laerm;65076;52.362;6.588;2023-01-15T01:55:19;48.47;32.51;64.29;;
76261;Laerm;65076;52.362;6.588;2023-01-15T01:57:50;36.04;31.43;46.55;;
76261;Laerm;65076;52.362;6.588;2023-01-15T02:00:21;39.54;33.34;56.47;;
76261;Laerm;65076;52.362;6.588;2023-01-15T02:02:51;46.98;34.22;62.15;;
76261;Laerm;65076;52.362;6.588;2023-01-15T02:05:28;44.60;33.80;59.55;;
76261;Laerm;65076;52.362;6.588;2023-01-15T02:07:57;39.05;33.91;52.38;;
76261;Laerm;65076;52.362;6.588;2023-01-15T02:10:26;52.53;33.36;70.66;;
76261;Laerm;65076;52.362;6.588;2023-01-15T02:13:03;51.21;32.18;70.04;;
76261;Laerm;65076;52.362;6.588;2023-01-15T02:15:38;37.99;32.66;57.87;;
76261;Laerm;65076;52.362;6.588;2023-01-15T02:18:18;45.06;33.16;62.41;;
76261;Laerm;65076;52.362;6.588;2023-01-15T02:20:52;37.22;32.87;56.25;;
76261;Laerm;65076;52.362;6.588;2023-01-15T02:23:49;38.90;33.21;54.41;;
76261;Laerm;65076;52.362;6.588;2023-01-15T02:29:31;44.71;33.41;64.73;;
76261;Laerm;65076;52.362;6.588;2023-01-15T02:32:07;45.23;34.14;62.49;;
76261;Laerm;65076;52.362;6.588;2023-01-15T02:34:47;40.70;33.76;63.86;;
76261;Laerm;65076;52.362;6.588;2023-01-15T02:37:24;41.97;33.11;58.21;;
76261;Laerm;65076;52.362;6.588;2023-01-15T02:39:57;39.82;33.86;57.65;;
76261;Laerm;65076;52.362;6.588;2023-01-15T02:42:30;39.41;32.55;57.09;;
76261;Laerm;65076;52.362;6.588;2023-01-15T02:45:01;42.28;33.53;59.60;;
76261;Laerm;65076;52.362;6.588;2023-01-15T02:47:34;45.28;32.62;61.29;;
76261;Laerm;65076;52.362;6.588;2023-01-15T02:50:11;46.50;32.68;58.98;;
76261;Laerm;65076;52.362;6.588;2023-01-15T02:52:45;41.13;32.71;58.81;;
76261;Laerm;65076;52.362;6.588;2023-01-15T02:55:19;40.69;33.42;54.41;;
76261;Laerm;65076;52.362;6.588;2023-01-15T02:57:55;43.64;33.01;58.44;;
76261;Laerm;65076;52.362;6.588;2023-01-15T03:00:26;38.34;33.80;54.00;;
76261;Laerm;65076;52.362;6.588;2023-01-15T03:03:05;39.47;32.52;58.29;;
76261;Laerm;65076;52.362;6.588;2023-01-15T03:05:39;39.47;33.03;56.67;;
76261;Laerm;65076;52.362;6.588;2023-01-15T03:08:10;41.76;33.45;62.51;;
76261;Laerm;65076;52.362;6.588;2023-01-15T03:10:46;40.93;33.34;62.15;;
76261;Laerm;65076;52.362;6.588;2023-01-15T03:13:26;37.51;33.39;54.74;;
76261;Laerm;65076;52.362;6.588;2023-01-15T03:16:02;38.30;33.19;50.27;;
76261;Laerm;65076;52.362;6.588;2023-01-15T03:18:54;47.87;34.84;76.07;;
76261;Laerm;65076;52.362;6.588;2023-01-15T03:21:30;39.06;33.01;56.08;;
76261;Laerm;65076;52.362;6.588;2023-01-15T03:24:05;44.24;33.11;60.05;;
76261;Laerm;65076;52.362;6.588;2023-01-15T03:26:34;40.84;35.11;55.95;;
76261;Laerm;65076;52.362;6.588;2023-01-15T03:29:06;47.74;34.00;65.60;;
76261;Laerm;65076;52.362;6.588;2023-01-15T03:31:35;48.08;33.87;66.96;;
76261;Laerm;65076;52.362;6.588;2023-01-15T03:34:04;40.19;32.89;55.05;;
76261;Laerm;65076;52.362;6.588;2023-01-15T03:36:33;44.13;34.25;65.06;;
76261;Laerm;65076;52.362;6.588;2023-01-15T03:39:01;37.93;33.44;53.10;;
76261;Laerm;65076;52.362;6.588;2023-01-15T03:41:44;37.63;31.74;54.46;;
76261;Laerm;65076;52.362;6.588;2023-01-15T03:44:26;38.31;31.99;52.12;;
76261;Laerm;65076;52.362;6.588;2023-01-15T03:47:15;37.21;32.98;46.45;;
76261;Laerm;65076;52.362;6.588;2023-01-15T03:49:56;46.31;32.69;63.04;;
76261;Laerm;65076;52.362;6.588;2023-01-15T03:52:30;42.05;33.14;66.49;;
76261;Laerm;65076;52.362;6.588;2023-01-15T03:55:10;44.54;33.01;61.95;;
76261;Laerm;65076;52.362;6.588;2023-01-15T03:57:47;37.30;32.18;57.24;;
76261;Laerm;65076;52.362;6.588;2023-01-15T04:00:24;37.89;32.32;57.60;;
76261;Laerm;65076;52.362;6.588;2023-01-15T04:02:55;37.49;32.07;49.37;;
76261;Laerm;65076;52.362;6.588;2023-01-15T04:05:27;39.49;33.65;58.33;;
76261;Laerm;65076;52.362;6.588;2023-01-15T04:07:57;39.87;32.95;51.97;;
76261;Laerm;65076;52.362;6.588;2023-01-15T04:10:26;37.44;33.92;46.16;;
76261;Laerm;65076;52.362;6.588;2023-01-15T04:12:54;37.94;32.26;47.63;;
76261;Laerm;65076;52.362;6.588;2023-01-15T04:15:23;37.83;32.43;49.87;;
76261;Laerm;65076;52.362;6.588;2023-01-15T04:17:51;43.52;33.54;61.08;;
76261;Laerm;65076;52.362;6.588;2023-01-15T04:20:19;40.21;33.18;60.85;;
76261;Laerm;65076;52.362;6.588;2023-01-15T04:22:47;40.41;33.61;60.26;;
76261;Laerm;65076;52.362;6.588;2023-01-15T04:25:15;40.34;32.59;62.42;;
76261;Laerm;65076;52.362;6.588;2023-01-15T04:27:42;38.21;32.83;51.55;;
76261;Laerm;65076;52.362;6.588;2023-01-15T04:30:11;40.41;32.64;61.38;;
76261;Laerm;65076;52.362;6.588;2023-01-15T04:32:41;42.20;33.21;64.15;;
76261;Laerm;65076;52.362;6.588;2023-01-15T04:35:08;47.89;32.93;65.09;;
76261;Laerm;65076;52.362;6.588;2023-01-15T04:37:37;40.86;33.50;59.36;;
76261;Laerm;65076;52.362;6.588;2023-01-15T04:40:07;37.94;32.59;52.81;;
76261;Laerm;65076;52.362;6.588;2023-01-15T04:42:56;38.21;32.56;57.05;;
76261;Laerm;65076;52.362;6.588;2023-01-15T04:45:43;37.53;33.17;55.80;;
76261;Laerm;65076;52.362;6.588;2023-01-15T04:48:12;39.78;32.97;58.98;;
76261;Laerm;65076;52.362;6.588;2023-01-15T04:50:40;40.43;32.11;60.49;;
76261;Laerm;65076;52.362;6.588;2023-01-15T04:53:08;41.96;33.90;59.06;;
76261;Laerm;65076;52.362;6.588;2023-01-15T04:55:36;36.48;32.27;46.49;;
76261;Laerm;65076;52.362;6.588;2023-01-15T04:58:04;40.24;32.08;57.93;;
76261;Laerm;65076;52.362;6.588;2023-01-15T05:00:32;40.35;33.44;54.91;;
76261;Laerm;65076;52.362;6.588;2023-01-15T05:03:00;42.50;33.32;54.39;;
76261;Laerm;65076;52.362;6.588;2023-01-15T05:05:29;38.45;32.31;56.54;;
76261;Laerm;65076;52.362;6.588;2023-01-15T05:07:58;39.10;33.56;50.61;;
76261;Laerm;65076;52.362;6.588;2023-01-15T05:10:26;39.40;33.24;59.48;;
76261;Laerm;65076;52.362;6.588;2023-01-15T05:12:53;40.10;33.46;52.17;;
76261;Laerm;65076;52.362;6.588;2023-01-15T05:15:21;37.53;33.23;49.56;;
76261;Laerm;65076;52.362;6.588;2023-01-15T05:17:49;40.04;34.43;55.56;;
76261;Laerm;65076;52.362;6.588;2023-01-15T05:20:17;47.88;33.35;65.78;;
76261;Laerm;65076;52.362;6.588;2023-01-15T05:22:47;44.09;33.30;60.44;;
76261;Laerm;65076;52.362;6.588;2023-01-15T05:25:15;40.19;35.20;55.28;;
76261;Laerm;65076;52.362;6.588;2023-01-15T05:27:42;42.66;33.77;56.01;;
76261;Laerm;65076;52.362;6.588;2023-01-15T05:30:11;40.16;34.69;58.14;;
76261;Laerm;65076;52.362;6.588;2023-01-15T05:32:39;40.69;33.69;62.01;;
76261;Laerm;65076;52.362;6.588;2023-01-15T05:35:08;38.41;34.14;49.88;;
76261;Laerm;65076;52.362;6.588;2023-01-15T05:37:36;48.30;34.34;66.13;;
76261;Laerm;65076;52.362;6.588;2023-01-15T05:40:08;41.99;34.46;59.42;;
76261;Laerm;65076;52.362;6.588;2023-01-15T05:42:37;45.43;36.18;61.79;;
76261;Laerm;65076;52.362;6.588;2023-01-15T05:45:07;55.65;39.38;77.21;;
76261;Laerm;65076;52.362;6.588;2023-01-15T05:47:35;45.74;39.82;61.25;;
76261;Laerm;65076;52.362;6.588;2023-01-15T05:50:04;50.97;41.32;67.08;;
76261;Laerm;65076;52.362;6.588;2023-01-15T05:52:32;52.96;43.13;64.71;;
76261;Laerm;65076;52.362;6.588;2023-01-15T05:55:00;45.29;35.65;66.83;;
76261;Laerm;65076;52.362;6.588;2023-01-15T05:57:29;42.15;34.07;55.89;;
76261;Laerm;65076;52.362;6.588;2023-01-15T05:59:58;39.66;33.46;54.59;;
76261;Laerm;65076;52.362;6.588;2023-01-15T06:02:26;43.62;34.56;57.27;;
76261;Laerm;65076;52.362;6.588;2023-01-15T06:04:54;48.71;35.03;65.89;;
76261;Laerm;65076;52.362;6.588;2023-01-15T06:07:22;53.45;40.40;69.46;;
76261;Laerm;65076;52.362;6.588;2023-01-15T06:09:50;51.83;39.99;67.72;;
76261;Laerm;65076;52.362;6.588;2023-01-15T06:12:18;52.28;37.24;70.38;;
76261;Laerm;65076;52.362;6.588;2023-01-15T06:14:47;54.30;41.96;71.72;;
76261;Laerm;65076;52.362;6.588;2023-01-15T06:17:15;45.52;35.00;62.85;;
76261;Laerm;65076;52.362;6.588;2023-01-15T06:19:42;45.91;34.47;58.73;;
76261;Laerm;65076;52.362;6.588;2023-01-15T06:22:10;46.57;33.29;62.30;;
76261;Laerm;65076;52.362;6.588;2023-01-15T06:24:38;35.53;32.43;46.32;;
76261;Laerm;65076;52.362;6.588;2023-01-15T06:27:07;39.63;34.04;51.37;;
76261;Laerm;65076;52.362;6.588;2023-01-15T06:29:34;37.79;33.97;50.34;;
76261;Laerm;65076;52.362;6.588;2023-01-15T06:32:04;52.87;33.46;69.03;;
76261;Laerm;65076;52.362;6.588;2023-01-15T06:34:32;41.39;34.45;52.10;;
76261;Laerm;65076;52.362;6.588;2023-01-15T06:37:02;37.18;33.55;42.86;;
76261;Laerm;65076;52.362;6.588;2023-01-15T06:39:29;37.86;32.94;55.06;;
76261;Laerm;65076;52.362;6.588;2023-01-15T06:41:57;45.75;33.14;58.64;;
76261;Laerm;65076;52.362;6.588;2023-01-15T06:44:43;47.46;32.72;66.31;;
76261;Laerm;65076;52.362;6.588;2023-01-15T06:47:29;49.91;34.02;64.32;;
76261;Laerm;65076;52.362;6.588;2023-01-15T06:49:57;49.84;35.43;65.14;;
76261;Laerm;65076;52.362;6.588;2023-01-15T06:52:27;38.90;33.78;59.54;;
76261;Laerm;65076;52.362;6.588;2023-01-15T06:54:56;47.88;33.91;66.76;;
76261;Laerm;65076;52.362;6.588;2023-01-15T06:57:24;38.51;33.39;62.09;;
76261;Laerm;65076;52.362;6.588;2023-01-15T06:59:51;39.48;34.14;56.52;;
76261;Laerm;65076;52.362;6.588;2023-01-15T07:02:19;44.95;34.85;61.21;;
76261;Laerm;65076;52.362;6.588;2023-01-15T07:04:50;46.27;35.01;67.83;;
76261;Laerm;65076;52.362;6.588;2023-01-15T07:07:19;44.57;35.61;60.97;;
76261;Laerm;65076;52.362;6.588;2023-01-15T07:09:48;58.01;37.72;76.50;;
76261;Laerm;65076;52.362;6.588;2023-01-15T07:12:16;49.92;35.92;66.76;;
76261;Laerm;65076;52.362;6.588;2023-01-15T07:14:44;57.11;37.81;74.39;;
76261;Laerm;65076;52.362;6.588;2023-01-15T07:17:13;43.75;36.06;62.07;;
76261;Laerm;65076;52.362;6.588;2023-01-15T07:19:41;45.48;37.19;63.39;;
76261;Laerm;65076;52.362;6.588;2023-01-15T07:22:11;54.44;38.49;67.81;;
76261;Laerm;65076;52.362;6.588;2023-01-15T07:24:40;52.58;37.84;68.69;;
76261;Laerm;65076;52.362;6.588;2023-01-15T07:27:08;50.86;40.57;67.79;;
76261;Laerm;65076;52.362;6.588;2023-01-15T07:29:36;51.20;35.86;70.17;;
76261;Laerm;65076;52.362;6.588;2023-01-15T07:32:05;50.33;38.54;69.98;;
76261;Laerm;65076;52.362;6.588;2023-01-15T07:34:33;46.11;37.91;65.57;;
76261;Laerm;65076;52.362;6.588;2023-01-15T07:37:00;50.23;40.58;67.23;;
76261;Laerm;65076;52.362;6.588;2023-01-15T07:39:30;59.40;39.77;78.20;;
76261;Laerm;65076;52.362;6.588;2023-01-15T07:41:58;51.51;40.09;66.13;;
76261;Laerm;65076;52.362;6.588;2023-01-15T07:44:43;55.45;37.99;70.86;;
76261;Laerm;65076;52.362;6.588;2023-01-15T07:47:28;49.73;38.09;70.30;;
76261;Laerm;65076;52.362;6.588;2023-01-15T07:50:19;54.03;38.58;68.80;;
76261;Laerm;65076;52.362;6.588;2023-01-15T07:52:47;51.16;38.17;64.29;;
76261;Laerm;65076;52.362;6.588;2023-01-15T07:55:20;49.93;37.05;67.38;;
76261;Laerm;65076;52.362;6.588;2023-01-15T07:57:48;49.39;38.17;61.82;;
76261;Laerm;65076;52.362;6.588;2023-01-15T08:00:21;42.36;36.22;57.03;;
76261;Laerm;65076;52.362;6.588;2023-01-15T08:02:49;40.75;34.83;51.24;;
76261;Laerm;65076;52.362;6.588;2023-01-15T08:05:18;52.17;37.63;65.84;;
76261;Laerm;65076;52.362;6.588;2023-01-15T08:07:46;58.38;38.34;76.67;;
76261;Laerm;65076;52.362;6.588;2023-01-15T08:10:15;49.06;37.86;62.63;;
76261;Laerm;65076;52.362;6.588;2023-01-15T08:12:48;47.91;41.87;58.16;;
76261;Laerm;65076;52.362;6.588;2023-01-15T08:15:39;56.28;38.78;71.23;;
76261;Laerm;65076;52.362;6.588;2023-01-15T08:18:09;54.84;39.57;67.32;;
76261;Laerm;65076;52.362;6.588;2023-01-15T08:20:37;53.94;39.54;66.14;;
76261;Laerm;65076;52.362;6.588;2023-01-15T08:23:05;53.72;38.44;67.31;;
76261;Laerm;65076;52.362;6.588;2023-01-15T08:25:33;54.29;37.08;67.17;;
76261;Laerm;65076;52.362;6.588;2023-01-15T08:28:03;48.25;37.43;61.22;;
76261;Laerm;65076;52.362;6.588;2023-01-15T08:30:31;52.75;37.41;70.23;;
76261;Laerm;65076;52.362;6.588;2023-01-15T08:32:59;49.66;36.41;68.60;;
76261;Laerm;65076;52.362;6.588;2023-01-15T08:35:28;50.13;38.03;64.81;;
76261;Laerm;65076;52.362;6.588;2023-01-15T08:37:56;58.45;38.11;77.05;;
76261;Laerm;65076;52.362;6.588;2023-01-15T08:40:24;48.69;37.62;69.06;;
76261;Laerm;65076;52.362;6.588;2023-01-15T08:42:53;48.71;39.17;60.88;;
76261;Laerm;65076;52.362;6.588;2023-01-15T08:45:23;56.92;39.11;71.77;;
76261;Laerm;65076;52.362;6.588;2023-01-15T08:47:54;53.44;37.69;67.39;;
76261;Laerm;65076;52.362;6.588;2023-01-15T08:50:23;50.02;37.97;63.85;;
76261;Laerm;65076;52.362;6.588;2023-01-15T08:52:51;52.38;40.06;68.15;;
76261;Laerm;65076;52.362;6.588;2023-01-15T08:55:19;54.76;40.89;67.65;;
76261;Laerm;65076;52.362;6.588;2023-01-15T08:57:47;52.56;38.82;67.65;;
76261;Laerm;65076;52.362;6.588;2023-01-15T09:00:16;45.08;39.27;58.35;;
76261;Laerm;65076;52.362;6.588;2023-01-15T09:02:46;52.86;40.03;71.65;;
76261;Laerm;65076;52.362;6.588;2023-01-15T09:05:16;49.65;37.58;65.50;;
76261;Laerm;65076;52.362;6.588;2023-01-15T09:07:44;56.35;38.23;75.28;;
76261;Laerm;65076;52.362;6.588;2023-01-15T09:10:12;54.90;39.58;71.82;;
76261;Laerm;65076;52.362;6.588;2023-01-15T09:12:40;52.84;42.11;68.74;;
76261;Laerm;65076;52.362;6.588;2023-01-15T09:15:09;57.87;43.15;74.18;;
76261;Laerm;65076;52.362;6.588;2023-01-15T09:17:38;56.48;43.04;70.43;;
76261;Laerm;65076;52.362;6.588;2023-01-15T09:20:14;54.38;41.26;67.64;;
76261;Laerm;65076;52.362;6.588;2023-01-15T09:22:42;55.13;42.28;67.91;;
76261;Laerm;65076;52.362;6.588;2023-01-15T09:25:10;55.11;42.94;73.42;;
76261;Laerm;65076;52.362;6.588;2023-01-15T09:27:38;56.76;41.88;73.76;;
76261;Laerm;65076;52.362;6.588;2023-01-15T09:30:08;53.27;39.94;64.38;;
76261;Laerm;65076;52.362;6.588;2023-01-15T09:32:37;54.12;41.53;69.12;;
76261;Laerm;65076;52.362;6.588;2023-01-15T09:35:06;56.88;43.93;72.65;;
76261;Laerm;65076;52.362;6.588;2023-01-15T09:37:35;50.11;42.11;62.88;;
76261;Laerm;65076;52.362;6.588;2023-01-15T09:40:05;58.86;42.99;78.77;;
76261;Laerm;65076;52.362;6.588;2023-01-15T09:42:45;53.92;41.55;77.04;;
76261;Laerm;65076;52.362;6.588;2023-01-15T09:45:23;56.04;41.73;73.24;;
76261;Laerm;65076;52.362;6.588;2023-01-15T09:48:12;54.67;43.29;67.52;;
76261;Laerm;65076;52.362;6.588;2023-01-15T09:51:01;52.58;40.48;66.97;;
76261;Laerm;65076;52.362;6.588;2023-01-15T09:54:05;54.25;39.17;68.97;;
76261;Laerm;65076;52.362;6.588;2023-01-15T09:56:38;55.40;44.45;71.65;;
76261;Laerm;65076;52.362;6.588;2023-01-15T09:59:19;56.39;42.78;68.53;;
76261;Laerm;65076;52.362;6.588;2023-01-15T10:01:50;58.81;43.98;81.69;;
76261;Laerm;65076;52.362;6.588;2023-01-15T10:04:35;53.42;42.77;67.41;;
76261;Laerm;65076;52.362;6.588;2023-01-15T10:07:14;54.74;41.76;74.43;;
76261;Laerm;65076;52.362;6.588;2023-01-15T10:09:54;58.83;42.70;75.27;;
76261;Laerm;65076;52.362;6.588;2023-01-15T10:12:27;52.63;42.26;66.73;;
76261;Laerm;65076;52.362;6.588;2023-01-15T10:15:15;57.38;42.43;76.12;;
76261;Laerm;65076;52.362;6.588;2023-01-15T10:17:49;58.39;43.06;75.60;;
76261;Laerm;65076;52.362;6.588;2023-01-15T10:20:39;53.94;41.87;64.87;;
76261;Laerm;65076;52.362;6.588;2023-01-15T10:23:27;55.52;43.43;78.34;;
76261;Laerm;65076;52.362;6.588;2023-01-15T10:26:07;55.84;44.01;74.62;;
76261;Laerm;65076;52.362;6.588;2023-01-15T10:28:57;54.59;40.39;71.45;;
76261;Laerm;65076;52.362;6.588;2023-01-15T10:31:50;52.63;41.41;76.29;;
76261;Laerm;65076;52.362;6.588;2023-01-15T10:37:57;57.51;40.19;76.92;;
76261;Laerm;65076;52.362;6.588;2023-01-15T10:40:41;54.66;41.56;69.82;;
76261;Laerm;65076;52.362;6.588;2023-01-15T10:43:20;51.91;42.71;69.58;;
76261;Laerm;65076;52.362;6.588;2023-01-15T10:45:55;56.27;41.61;72.05;;
76261;Laerm;65076;52.362;6.588;2023-01-15T10:48:31;54.24;43.01;72.22;;
76261;Laerm;65076;52.362;6.588;2023-01-15T10:51:12;54.72;46.23;69.37;;
76261;Laerm;65076;52.362;6.588;2023-01-15T10:53:48;55.07;41.47;72.21;;
76261;Laerm;65076;52.362;6.588;2023-01-15T10:56:29;54.46;41.42;68.26;;
76261;Laerm;65076;52.362;6.588;2023-01-15T10:59:11;52.74;42.34;68.21;;
76261;Laerm;65076;52.362;6.588;2023-01-15T11:01:42;55.04;42.73;71.21;;
76261;Laerm;65076;52.362;6.588;2023-01-15T11:04:11;58.48;47.91;77.85;;
76261;Laerm;65076;52.362;6.588;2023-01-15T11:06:40;56.29;44.15;67.92;;
76261;Laerm;65076;52.362;6.588;2023-01-15T11:09:19;59.09;44.24;80.52;;
76261;Laerm;65076;52.362;6.588;2023-01-15T11:11:51;56.75;43.42;70.06;;
76261;Laerm;65076;52.362;6.588;2023-01-15T11:14:42;56.42;45.45;73.53;;
76261;Laerm;65076;52.362;6.588;2023-01-15T11:17:31;53.89;44.36;70.21;;
76261;Laerm;65076;52.362;6.588;2023-01-15T11:20:27;56.92;43.93;71.72;;
76261;Laerm;65076;52.362;6.588;2023-01-15T11:23:04;52.85;42.30;72.96;;
76261;Laerm;65076;52.362;6.588;2023-01-15T11:25:33;58.17;42.82;73.32;;
76261;Laerm;65076;52.362;6.588;2023-01-15T11:28:05;50.61;40.53;62.96;;
76261;Laerm;65076;52.362;6.588;2023-01-15T11:30:36;58.23;41.32;75.20;;
76261;Laerm;65076;52.362;6.588;2023-01-15T11:33:20;59.20;42.23;79.74;;
76261;Laerm;65076;52.362;6.588;2023-01-15T11:35:50;56.28;46.57;76.32;;
76261;Laerm;65076;52.362;6.588;2023-01-15T11:38:24;58.77;44.75;74.91;;
76261;Laerm;65076;52.362;6.588;2023-01-15T11:40:54;56.55;45.68;73.19;;
76261;Laerm;65076;52.362;6.588;2023-01-15T11:43:27;58.07;47.75;74.47;;
76261;Laerm;65076;52.362;6.588;2023-01-15T11:46:26;58.66;45.15;74.33;;
76261;Laerm;65076;52.362;6.588;2023-01-15T11:49:17;57.42;43.34;78.63;;
76261;Laerm;65076;52.362;6.588;2023-01-15T11:52:08;52.15;44.04;69.79;;
76261;Laerm;65076;52.362;6.588;2023-01-15T11:54:38;59.23;45.72;78.50;;
76261;Laerm;65076;52.362;6.588;2023-01-15T11:57:09;56.07;46.65;74.65;;
76261;Laerm;65076;52.362;6.588;2023-01-15T11:59:37;55.57;43.73;73.17;;
76261;Laerm;65076;52.362;6.588;2023-01-15T12:02:24;57.25;42.73;75.05;;
76261;Laerm;65076;52.362;6.588;2023-01-15T12:05:00;56.01;44.29;71.40;;
76261;Laerm;65076;52.362;6.588;2023-01-15T12:07:29;54.87;43.51;74.06;;
76261;Laerm;65076;52.362;6.588;2023-01-15T12:10:18;55.11;43.23;67.01;;
76261;Laerm;65076;52.362;6.588;2023-01-15T12:13:23;57.16;47.17;79.22;;
76261;Laerm;65076;52.362;6.588;2023-01-15T12:16:06;58.37;45.28;75.80;;
76261;Laerm;65076;52.362;6.588;2023-01-15T12:18:52;58.89;47.78;76.52;;
76261;Laerm;65076;52.362;6.588;2023-01-15T12:21:50;57.12;45.88;72.49;;
76261;Laerm;65076;52.362;6.588;2023-01-15T12:24:43;60.79;49.27;80.74;;
76261;Laerm;65076;52.362;6.588;2023-01-15T12:27:34;57.71;45.71;83.01;;
76261;Laerm;65076;52.362;6.588;2023-01-15T12:30:20;57.94;47.18;74.69;;
76261;Laerm;65076;52.362;6.588;2023-01-15T12:33:02;59.42;46.22;74.68;;
76261;Laerm;65076;52.362;6.588;2023-01-15T12:35:40;55.22;42.57;79.47;;
76261;Laerm;65076;52.362;6.588;2023-01-15T12:38:17;59.19;46.35;74.95;;
76261;Laerm;65076;52.362;6.588;2023-01-15T12:40:53;55.17;44.58;75.13;;
76261;Laerm;65076;52.362;6.588;2023-01-15T12:43:25;58.78;45.32;78.62;;
76261;Laerm;65076;52.362;6.588;2023-01-15T12:46:16;59.39;46.34;83.32;;
76261;Laerm;65076;52.362;6.588;2023-01-15T12:48:51;54.36;43.09;76.36;;
76261;Laerm;65076;52.362;6.588;2023-01-15T12:51:29;59.59;48.10;77.06;;
76261;Laerm;65076;52.362;6.588;2023-01-15T12:54:03;58.39;43.78;74.09;;
76261;Laerm;65076;52.362;6.588;2023-01-15T12:56:49;57.20;46.89;76.50;;
76261;Laerm;65076;52.362;6.588;2023-01-15T12:59:28;54.25;42.78;76.54;;
76261;Laerm;65076;52.362;6.588;2023-01-15T13:02:12;57.57;46.31;76.44;;
76261;Laerm;65076;52.362;6.588;2023-01-15T13:04:48;56.18;45.83;77.70;;
76261;Laerm;65076;52.362;6.588;2023-01-15T13:07:27;53.78;44.03;66.69;;
76261;Laerm;65076;52.362;6.588;2023-01-15T13:10:05;63.81;43.35;76.71;;
76261;Laerm;65076;52.362;6.588;2023-01-15T13:12:36;55.88;43.63;73.48;;
76261;Laerm;65076;52.362;6.588;2023-01-15T13:15:10;57.96;45.91;80.60;;
76261;Laerm;65076;52.362;6.588;2023-01-15T13:17:55;54.22;44.50;71.21;;
76261;Laerm;65076;52.362;6.588;2023-01-15T13:20:40;58.80;45.37;81.26;;
76261;Laerm;65076;52.362;6.588;2023-01-15T13:23:30;57.09;44.28;80.49;;
76261;Laerm;65076;52.362;6.588;2023-01-15T13:26:37;57.12;46.77;68.74;;
76261;Laerm;65076;52.362;6.588;2023-01-15T13:29:20;55.54;43.71;70.44;;
76261;Laerm;65076;52.362;6.588;2023-01-15T13:32:15;52.40;44.12;63.93;;
76261;Laerm;65076;52.362;6.588;2023-01-15T13:34:48;54.10;43.98;73.27;;
76261;Laerm;65076;52.362;6.588;2023-01-15T13:37:25;58.08;45.56;75.32;;
76261;Laerm;65076;52.362;6.588;2023-01-15T13:40:00;60.17;41.42;76.57;;
76261;Laerm;65076;52.362;6.588;2023-01-15T13:42:31;54.84;41.19;75.71;;
76261;Laerm;65076;52.362;6.588;2023-01-15T13:45:18;58.42;46.94;75.79;;
76261;Laerm;65076;52.362;6.588;2023-01-15T13:47:55;58.89;46.15;68.99;;
76261;Laerm;65076;52.362;6.588;2023-01-15T13:50:29;59.20;44.14;70.03;;
76261;Laerm;65076;52.362;6.588;2023-01-15T13:53:12;56.15;43.41;66.66;;
76261;Laerm;65076;52.362;6.588;2023-01-15T13:55:51;58.23;42.13;73.21;;
76261;Laerm;65076;52.362;6.588;2023-01-15T13:58:25;56.01;43.52;67.58;;
76261;Laerm;65076;52.362;6.588;2023-01-15T14:01:06;54.91;43.66;74.34;;
76261;Laerm;65076;52.362;6.588;2023-01-15T14:03:36;56.22;41.20;66.18;;
76261;Laerm;65076;52.362;6.588;2023-01-15T14:06:07;59.47;43.37;71.85;;
76261;Laerm;65076;52.362;6.588;2023-01-15T14:08:40;58.50;42.42;76.31;;
76261;Laerm;65076;52.362;6.588;2023-01-15T14:11:45;55.20;41.50;69.25;;
76261;Laerm;65076;52.362;6.588;2023-01-15T14:15:07;56.81;41.98;71.33;;
76261;Laerm;65076;52.362;6.588;2023-01-15T14:18:13;56.27;42.86;69.38;;
76261;Laerm;65076;52.362;6.588;2023-01-15T14:20:58;54.34;42.00;65.50;;
76261;Laerm;65076;52.362;6.588;2023-01-15T14:24:01;57.61;39.91;76.56;;
76261;Laerm;65076;52.362;6.588;2023-01-15T14:26:45;56.50;42.35;75.59;;
76261;Laerm;65076;52.362;6.588;2023-01-15T14:30:02;51.98;39.92;65.15;;
76261;Laerm;65076;52.362;6.588;2023-01-15T14:32:53;58.03;44.16;72.46;;
76261;Laerm;65076;52.362;6.588;2023-01-15T14:35:25;51.22;40.12;71.28;;